sensor_id;sensor_type;location;lat;lon;timestamp;P1;durP1;ratioP1;P2;durP2;ratioP2
12892;SDS011;6514;48.606;9.222;2024-01-07T00:00:08;19.27;;;12.50;;
12892;SDS011;6514;48.606;9.222;2024-01-07T00:02:35;22.63;;;13.77;;
12892;SDS011;6514;48.606;9.222;2024-01-07T00:05:02;21.13;;;13.23;;
12892;SDS011;6514;48.606;9.222;2024-01-07T00:07:31;20.43;;;13.47;;
12892;SDS011;6514;48.606;9.222;2024-01-07T00:09:58;20.97;;;12.83;;
12892;SDS011;6514;48.606;9.222;2024-01-07T00:12:25;22.37;;;13.53;;
12892;SDS011;6514;48.606;9.222;2024-01-07T00:14:51;23.77;;;14.17;;
12892;SDS011;6514;48.606;9.222;2024-01-07T00:17:18;23.37;;;13.43;;
12892;SDS011;6514;48.606;9.222;2024-01-07T00:19:45;24.30;;;14.37;;
12892;SDS011;6514;48.606;9.222;2024-01-07T00:22:12;23.33;;;13.57;;
12892;SDS011;6514;48.606;9.222;2024-01-07T00:24:40;21.70;;;13.47;;
12892;SDS011;6514;48.606;9.222;2024-01-07T00:27:06;20.73;;;13.03;;
12892;SDS011;6514;48.606;9.222;2024-01-07T00:29:34;22.53;;;13.43;;
12892;SDS011;6514;48.606;9.222;2024-01-07T00:32:01;21.13;;;13.87;;
12892;SDS011;6514;48.606;9.222;2024-01-07T00:34:28;22.07;;;13.10;;
12892;SDS011;6514;48.606;9.222;2024-01-07T00:36:54;21.67;;;13.10;;
12892;SDS011;6514;48.606;9.222;2024-01-07T00:39:21;22.63;;;14.03;;
12892;SDS011;6514;48.606;9.222;2024-01-07T00:41:49;24.07;;;12.90;;
12892;SDS011;6514;48.606;9.222;2024-01-07T00:44:16;20.93;;;13.30;;
12892;SDS011;6514;48.606;9.222;2024-01-07T00:46:43;19.60;;;12.77;;
12892;SDS011;6514;48.606;9.222;2024-01-07T00:49:09;23.93;;;13.27;;
12892;SDS011;6514;48.606;9.222;2024-01-07T00:51:36;19.47;;;12.60;;
12892;SDS011;6514;48.606;9.222;2024-01-07T00:54:03;19.80;;;13.37;;
12892;SDS011;6514;48.606;9.222;2024-01-07T00:56:30;21.00;;;13.30;;
12892;SDS011;6514;48.606;9.222;2024-01-07T00:58:58;24.87;;;13.57;;
12892;SDS011;6514;48.606;9.222;2024-01-07T01:01:24;20.90;;;12.90;;
12892;SDS011;6514;48.606;9.222;2024-01-07T01:03:51;20.03;;;12.37;;
12892;SDS011;6514;48.606;9.222;2024-01-07T01:06:18;23.43;;;13.03;;
12892;SDS011;6514;48.606;9.222;2024-01-07T01:08:45;22.33;;;12.90;;
12892;SDS011;6514;48.606;9.222;2024-01-07T01:11:12;20.93;;;13.47;;
12892;SDS011;6514;48.606;9.222;2024-01-07T01:13:39;21.57;;;13.00;;
12892;SDS011;6514;48.606;9.222;2024-01-07T01:16:07;22.10;;;12.87;;
12892;SDS011;6514;48.606;9.222;2024-01-07T01:18:34;21.67;;;13.03;;
12892;SDS011;6514;48.606;9.222;2024-01-07T01:21:01;22.17;;;14.13;;
12892;SDS011;6514;48.606;9.222;2024-01-07T01:23:27;19.57;;;12.57;;
12892;SDS011;6514;48.606;9.222;2024-01-07T01:25:54;19.90;;;12.20;;
12892;SDS011;6514;48.606;9.222;2024-01-07T01:28:21;20.70;;;13.63;;
12892;SDS011;6514;48.606;9.222;2024-01-07T01:30:48;18.70;;;12.23;;
12892;SDS011;6514;48.606;9.222;2024-01-07T01:33:16;20.43;;;12.90;;
12892;SDS011;6514;48.606;9.222;2024-01-07T01:35:43;22.47;;;12.83;;
12892;SDS011;6514;48.606;9.222;2024-01-07T01:38:09;22.37;;;13.23;;
12892;SDS011;6514;48.606;9.222;2024-01-07T01:40:36;22.03;;;13.40;;
12892;SDS011;6514;48.606;9.222;2024-01-07T01:43:03;20.23;;;13.27;;
12892;SDS011;6514;48.606;9.222;2024-01-07T01:45:30;20.90;;;12.57;;
12892;SDS011;6514;48.606;9.222;2024-01-07T01:47:57;22.83;;;13.10;;
12892;SDS011;6514;48.606;9.222;2024-01-07T01:50:25;20.97;;;13.07;;
12892;SDS011;6514;48.606;9.222;2024-01-07T01:52:52;21.73;;;13.57;;
12892;SDS011;6514;48.606;9.222;2024-01-07T01:55:21;20.77;;;12.67;;
12892;SDS011;6514;48.606;9.222;2024-01-07T01:57:48;22.53;;;13.33;;
12892;SDS011;6514;48.606;9.222;2024-01-07T02:00:15;19.87;;;12.67;;
12892;SDS011;6514;48.606;9.222;2024-01-07T02:02:43;20.17;;;12.53;;
12892;SDS011;6514;48.606;9.222;2024-01-07T02:05:09;21.07;;;12.47;;
12892;SDS011;6514;48.606;9.222;2024-01-07T02:07:40;20.13;;;12.90;;
12892;SDS011;6514;48.606;9.222;2024-01-07T02:10:07;21.00;;;12.00;;
12892;SDS011;6514;48.606;9.222;2024-01-07T02:12:34;20.73;;;12.10;;
12892;SDS011;6514;48.606;9.222;2024-01-07T02:15:01;20.80;;;12.70;;
12892;SDS011;6514;48.606;9.222;2024-01-07T02:17:28;19.43;;;13.20;;
12892;SDS011;6514;48.606;9.222;2024-01-07T02:19:55;21.00;;;13.03;;
12892;SDS011;6514;48.606;9.222;2024-01-07T02:22:22;23.13;;;13.83;;
12892;SDS011;6514;48.606;9.222;2024-01-07T02:24:50;22.87;;;13.53;;
12892;SDS011;6514;48.606;9.222;2024-01-07T02:27:17;20.93;;;12.87;;
12892;SDS011;6514;48.606;9.222;2024-01-07T02:29:44;19.13;;;12.10;;
12892;SDS011;6514;48.606;9.222;2024-01-07T02:32:11;17.60;;;11.33;;
12892;SDS011;6514;48.606;9.222;2024-01-07T02:34:37;22.73;;;12.93;;
12892;SDS011;6514;48.606;9.222;2024-01-07T02:37:04;20.67;;;11.47;;
12892;SDS011;6514;48.606;9.222;2024-01-07T02:39:31;17.13;;;11.30;;
12892;SDS011;6514;48.606;9.222;2024-01-07T02:41:59;18.97;;;12.23;;
12892;SDS011;6514;48.606;9.222;2024-01-07T02:44:26;21.07;;;11.57;;
12892;SDS011;6514;48.606;9.222;2024-01-07T02:46:53;20.10;;;12.60;;
12892;SDS011;6514;48.606;9.222;2024-01-07T02:49:19;18.20;;;11.97;;
12892;SDS011;6514;48.606;9.222;2024-01-07T02:51:46;22.57;;;12.63;;
12892;SDS011;6514;48.606;9.222;2024-01-07T02:54:14;20.20;;;11.47;;
12892;SDS011;6514;48.606;9.222;2024-01-07T02:56:41;20.67;;;12.47;;
12892;SDS011;6514;48.606;9.222;2024-01-07T02:59:09;21.37;;;12.03;;
12892;SDS011;6514;48.606;9.222;2024-01-07T03:01:36;19.53;;;11.57;;
12892;SDS011;6514;48.606;9.222;2024-01-07T03:04:05;22.00;;;12.33;;
12892;SDS011;6514;48.606;9.222;2024-01-07T03:06:32;20.27;;;11.30;;
12892;SDS011;6514;48.606;9.222;2024-01-07T03:08:58;18.90;;;11.37;;
12892;SDS011;6514;48.606;9.222;2024-01-07T03:11:25;22.60;;;12.10;;
12892;SDS011;6514;48.606;9.222;2024-01-07T03:13:52;19.37;;;11.23;;
12892;SDS011;6514;48.606;9.222;2024-01-07T03:16:21;21.53;;;13.00;;
12892;SDS011;6514;48.606;9.222;2024-01-07T03:18:48;19.27;;;11.73;;
12892;SDS011;6514;48.606;9.222;2024-01-07T03:21:18;18.90;;;11.07;;
12892;SDS011;6514;48.606;9.222;2024-01-07T03:23:45;20.40;;;12.07;;
12892;SDS011;6514;48.606;9.222;2024-01-07T03:26:13;19.20;;;12.00;;
12892;SDS011;6514;48.606;9.222;2024-01-07T03:28:40;19.73;;;11.63;;
12892;SDS011;6514;48.606;9.222;2024-01-07T03:31:08;19.37;;;12.17;;
12892;SDS011;6514;48.606;9.222;2024-01-07T03:33:38;19.50;;;11.70;;
12892;SDS011;6514;48.606;9.222;2024-01-07T03:36:06;19.73;;;11.23;;
12892;SDS011;6514;48.606;9.222;2024-01-07T03:38:34;18.77;;;11.77;;
12892;SDS011;6514;48.606;9.222;2024-01-07T03:41:01;19.23;;;11.27;;
12892;SDS011;6514;48.606;9.222;2024-01-07T03:43:28;18.57;;;11.97;;
12892;SDS011;6514;48.606;9.222;2024-01-07T03:45:55;20.43;;;12.57;;
12892;SDS011;6514;48.606;9.222;2024-01-07T03:48:22;20.33;;;12.17;;
12892;SDS011;6514;48.606;9.222;2024-01-07T03:50:50;17.53;;;11.33;;
12892;SDS011;6514;48.606;9.222;2024-01-07T03:53:17;18.27;;;11.87;;
12892;SDS011;6514;48.606;9.222;2024-01-07T03:55:44;18.73;;;11.40;;
12892;SDS011;6514;48.606;9.222;2024-01-07T03:58:11;17.83;;;10.97;;
12892;SDS011;6514;48.606;9.222;2024-01-07T04:00:38;17.93;;;11.63;;
12892;SDS011;6514;48.606;9.222;2024-01-07T04:03:04;22.17;;;12.70;;
12892;SDS011;6514;48.606;9.222;2024-01-07T04:05:31;19.10;;;11.50;;
12892;SDS011;6514;48.606;9.222;2024-01-07T04:08:00;21.93;;;11.83;;
12892;SDS011;6514;48.606;9.222;2024-01-07T04:10:27;16.90;;;11.23;;
12892;SDS011;6514;48.606;9.222;2024-01-07T04:12:54;19.37;;;11.63;;
12892;SDS011;6514;48.606;9.222;2024-01-07T04:15:21;19.50;;;11.80;;
12892;SDS011;6514;48.606;9.222;2024-01-07T04:17:47;19.57;;;11.47;;
12892;SDS011;6514;48.606;9.222;2024-01-07T04:20:14;16.30;;;11.97;;
12892;SDS011;6514;48.606;9.222;2024-01-07T04:22:41;18.00;;;11.67;;
12892;SDS011;6514;48.606;9.222;2024-01-07T04:25:09;19.73;;;11.93;;
12892;SDS011;6514;48.606;9.222;2024-01-07T04:27:36;20.17;;;12.10;;
12892;SDS011;6514;48.606;9.222;2024-01-07T04:30:04;17.70;;;11.57;;
12892;SDS011;6514;48.606;9.222;2024-01-07T04:32:32;19.73;;;11.90;;
12892;SDS011;6514;48.606;9.222;2024-01-07T04:34:59;19.67;;;11.63;;
12892;SDS011;6514;48.606;9.222;2024-01-07T04:37:25;19.83;;;12.20;;
12892;SDS011;6514;48.606;9.222;2024-01-07T04:39:52;16.33;;;11.63;;
12892;SDS011;6514;48.606;9.222;2024-01-07T04:42:20;19.03;;;11.50;;
12892;SDS011;6514;48.606;9.222;2024-01-07T04:44:47;15.27;;;10.93;;
12892;SDS011;6514;48.606;9.222;2024-01-07T04:47:25;18.93;;;11.37;;
12892;SDS011;6514;48.606;9.222;2024-01-07T04:49:52;18.80;;;11.00;;
12892;SDS011;6514;48.606;9.222;2024-01-07T04:52:19;15.53;;;11.07;;
12892;SDS011;6514;48.606;9.222;2024-01-07T04:54:46;17.67;;;11.27;;
12892;SDS011;6514;48.606;9.222;2024-01-07T04:57:12;17.60;;;11.07;;
12892;SDS011;6514;48.606;9.222;2024-01-07T04:59:41;20.70;;;10.93;;
12892;SDS011;6514;48.606;9.222;2024-01-07T05:02:08;16.57;;;11.00;;
12892;SDS011;6514;48.606;9.222;2024-01-07T05:04:35;15.53;;;10.90;;
12892;SDS011;6514;48.606;9.222;2024-01-07T05:07:02;16.00;;;10.73;;
12892;SDS011;6514;48.606;9.222;2024-01-07T05:09:29;15.63;;;10.93;;
12892;SDS011;6514;48.606;9.222;2024-01-07T05:11:56;16.97;;;11.00;;
12892;SDS011;6514;48.606;9.222;2024-01-07T05:14:23;16.13;;;10.90;;
12892;SDS011;6514;48.606;9.222;2024-01-07T05:16:51;19.80;;;11.43;;
12892;SDS011;6514;48.606;9.222;2024-01-07T05:19:19;15.07;;;10.60;;
12892;SDS011;6514;48.606;9.222;2024-01-07T05:21:45;13.90;;;10.43;;
12892;SDS011;6514;48.606;9.222;2024-01-07T05:24:12;16.20;;;10.57;;
12892;SDS011;6514;48.606;9.222;2024-01-07T05:26:39;16.87;;;10.60;;
12892;SDS011;6514;48.606;9.222;2024-01-07T05:29:07;14.60;;;10.30;;
12892;SDS011;6514;48.606;9.222;2024-01-07T05:31:34;14.60;;;10.83;;
12892;SDS011;6514;48.606;9.222;2024-01-07T05:34:02;13.60;;;10.07;;
12892;SDS011;6514;48.606;9.222;2024-01-07T05:36:29;15.83;;;9.97;;
12892;SDS011;6514;48.606;9.222;2024-01-07T05:38:56;16.07;;;10.57;;
12892;SDS011;6514;48.606;9.222;2024-01-07T05:41:23;16.53;;;11.57;;
12892;SDS011;6514;48.606;9.222;2024-01-07T05:43:49;14.90;;;10.40;;
12892;SDS011;6514;48.606;9.222;2024-01-07T05:46:17;15.33;;;11.03;;
12892;SDS011;6514;48.606;9.222;2024-01-07T05:48:44;14.63;;;11.07;;
12892;SDS011;6514;48.606;9.222;2024-01-07T05:51:13;16.07;;;10.20;;
12892;SDS011;6514;48.606;9.222;2024-01-07T05:53:41;14.50;;;10.47;;
12892;SDS011;6514;48.606;9.222;2024-01-07T05:56:08;14.90;;;9.63;;
12892;SDS011;6514;48.606;9.222;2024-01-07T05:58:35;17.50;;;11.20;;
12892;SDS011;6514;48.606;9.222;2024-01-07T06:01:02;14.30;;;10.43;;
12892;SDS011;6514;48.606;9.222;2024-01-07T06:03:28;15.67;;;10.43;;
12892;SDS011;6514;48.606;9.222;2024-01-07T06:05:55;14.87;;;11.07;;
12892;SDS011;6514;48.606;9.222;2024-01-07T06:08:25;13.93;;;10.80;;
12892;SDS011;6514;48.606;9.222;2024-01-07T06:10:52;14.63;;;10.43;;
12892;SDS011;6514;48.606;9.222;2024-01-07T06:13:18;15.23;;;10.97;;
12892;SDS011;6514;48.606;9.222;2024-01-07T06:15:45;15.80;;;10.47;;
12892;SDS011;6514;48.606;9.222;2024-01-07T06:18:12;13.03;;;10.80;;
12892;SDS011;6514;48.606;9.222;2024-01-07T06:20:39;16.57;;;10.67;;
12892;SDS011;6514;48.606;9.222;2024-01-07T06:23:05;15.00;;;10.83;;
12892;SDS011;6514;48.606;9.222;2024-01-07T06:25:34;12.97;;;10.63;;
12892;SDS011;6514;48.606;9.222;2024-01-07T06:28:01;14.33;;;10.30;;
12892;SDS011;6514;48.606;9.222;2024-01-07T06:30:28;14.57;;;10.60;;
12892;SDS011;6514;48.606;9.222;2024-01-07T06:32:55;13.00;;;10.23;;
12892;SDS011;6514;48.606;9.222;2024-01-07T06:35:22;14.77;;;10.60;;
12892;SDS011;6514;48.606;9.222;2024-01-07T06:37:48;17.43;;;10.93;;
12892;SDS011;6514;48.606;9.222;2024-01-07T06:40:15;13.60;;;10.13;;
12892;SDS011;6514;48.606;9.222;2024-01-07T06:42:43;15.73;;;10.57;;
12892;SDS011;6514;48.606;9.222;2024-01-07T06:45:10;15.83;;;10.37;;
12892;SDS011;6514;48.606;9.222;2024-01-07T06:47:37;15.57;;;10.57;;
12892;SDS011;6514;48.606;9.222;2024-01-07T06:50:04;13.90;;;10.20;;
12892;SDS011;6514;48.606;9.222;2024-01-07T06:52:31;14.93;;;10.97;;
12892;SDS011;6514;48.606;9.222;2024-01-07T06:54:58;15.43;;;10.60;;
12892;SDS011;6514;48.606;9.222;2024-01-07T06:57:26;15.47;;;11.23;;
12892;SDS011;6514;48.606;9.222;2024-01-07T06:59:54;12.63;;;10.17;;
12892;SDS011;6514;48.606;9.222;2024-01-07T07:02:20;16.23;;;11.60;;
12892;SDS011;6514;48.606;9.222;2024-01-07T07:04:47;16.53;;;11.27;;
12892;SDS011;6514;48.606;9.222;2024-01-07T07:07:16;14.10;;;10.33;;
12892;SDS011;6514;48.606;9.222;2024-01-07T07:09:43;15.37;;;11.03;;
12892;SDS011;6514;48.606;9.222;2024-01-07T07:12:11;17.63;;;11.70;;
12892;SDS011;6514;48.606;9.222;2024-01-07T07:14:38;16.73;;;12.00;;
12892;SDS011;6514;48.606;9.222;2024-01-07T07:17:06;16.57;;;10.97;;
12892;SDS011;6514;48.606;9.222;2024-01-07T07:19:33;17.53;;;12.13;;
12892;SDS011;6514;48.606;9.222;2024-01-07T07:22:00;17.83;;;12.13;;
12892;SDS011;6514;48.606;9.222;2024-01-07T07:24:27;15.83;;;11.77;;
12892;SDS011;6514;48.606;9.222;2024-01-07T07:26:54;17.80;;;11.60;;
12892;SDS011;6514;48.606;9.222;2024-01-07T07:29:21;19.00;;;12.57;;
12892;SDS011;6514;48.606;9.222;2024-01-07T07:31:47;17.20;;;12.30;;
12892;SDS011;6514;48.606;9.222;2024-01-07T07:34:16;16.20;;;12.10;;
12892;SDS011;6514;48.606;9.222;2024-01-07T07:36:42;17.93;;;11.30;;
12892;SDS011;6514;48.606;9.222;2024-01-07T07:39:10;18.43;;;12.27;;
12892;SDS011;6514;48.606;9.222;2024-01-07T07:41:38;16.80;;;11.30;;
12892;SDS011;6514;48.606;9.222;2024-01-07T07:44:05;16.60;;;12.03;;
12892;SDS011;6514;48.606;9.222;2024-01-07T07:46:32;15.70;;;11.00;;
12892;SDS011;6514;48.606;9.222;2024-01-07T07:48:59;19.23;;;12.03;;
12892;SDS011;6514;48.606;9.222;2024-01-07T07:51:28;17.77;;;12.13;;
12892;SDS011;6514;48.606;9.222;2024-01-07T07:53:55;16.33;;;11.83;;
12892;SDS011;6514;48.606;9.222;2024-01-07T07:56:22;18.57;;;12.53;;
12892;SDS011;6514;48.606;9.222;2024-01-07T07:58:49;17.77;;;11.87;;
12892;SDS011;6514;48.606;9.222;2024-01-07T08:01:16;15.37;;;11.67;;
12892;SDS011;6514;48.606;9.222;2024-01-07T08:03:44;16.70;;;12.10;;
12892;SDS011;6514;48.606;9.222;2024-01-07T08:06:11;17.17;;;11.80;;
12892;SDS011;6514;48.606;9.222;2024-01-07T08:08:39;17.97;;;12.60;;
12892;SDS011;6514;48.606;9.222;2024-01-07T08:11:06;19.57;;;12.20;;
12892;SDS011;6514;48.606;9.222;2024-01-07T08:13:34;18.23;;;11.87;;
12892;SDS011;6514;48.606;9.222;2024-01-07T08:16:02;16.77;;;12.50;;
12892;SDS011;6514;48.606;9.222;2024-01-07T08:18:30;16.93;;;11.50;;
12892;SDS011;6514;48.606;9.222;2024-01-07T08:20:57;17.70;;;12.40;;
12892;SDS011;6514;48.606;9.222;2024-01-07T08:23:24;17.60;;;12.13;;
12892;SDS011;6514;48.606;9.222;2024-01-07T08:25:52;19.43;;;12.07;;
12892;SDS011;6514;48.606;9.222;2024-01-07T08:28:20;18.10;;;11.47;;
12892;SDS011;6514;48.606;9.222;2024-01-07T08:30:47;18.13;;;11.63;;
12892;SDS011;6514;48.606;9.222;2024-01-07T08:33:16;21.73;;;11.83;;
12892;SDS011;6514;48.606;9.222;2024-01-07T08:35:43;15.53;;;11.50;;
12892;SDS011;6514;48.606;9.222;2024-01-07T08:38:10;17.47;;;10.90;;
12892;SDS011;6514;48.606;9.222;2024-01-07T08:40:37;16.53;;;11.27;;
12892;SDS011;6514;48.606;9.222;2024-01-07T08:43:06;15.73;;;10.67;;
12892;SDS011;6514;48.606;9.222;2024-01-07T08:45:33;14.67;;;10.93;;
12892;SDS011;6514;48.606;9.222;2024-01-07T08:48:00;14.23;;;9.77;;
12892;SDS011;6514;48.606;9.222;2024-01-07T08:50:27;13.50;;;8.67;;
12892;SDS011;6514;48.606;9.222;2024-01-07T08:52:55;11.63;;;8.27;;
12892;SDS011;6514;48.606;9.222;2024-01-07T08:55:22;13.70;;;8.50;;
12892;SDS011;6514;48.606;9.222;2024-01-07T08:57:48;14.87;;;7.53;;
12892;SDS011;6514;48.606;9.222;2024-01-07T09:00:18;8.50;;;6.63;;
12892;SDS011;6514;48.606;9.222;2024-01-07T09:02:46;10.53;;;6.93;;
12892;SDS011;6514;48.606;9.222;2024-01-07T09:05:13;10.33;;;7.67;;
12892;SDS011;6514;48.606;9.222;2024-01-07T09:07:40;12.67;;;7.40;;
12892;SDS011;6514;48.606;9.222;2024-01-07T09:10:07;10.00;;;7.13;;
12892;SDS011;6514;48.606;9.222;2024-01-07T09:12:35;8.93;;;6.70;;
12892;SDS011;6514;48.606;9.222;2024-01-07T09:15:04;9.80;;;6.30;;
12892;SDS011;6514;48.606;9.222;2024-01-07T09:17:34;7.23;;;6.00;;
12892;SDS011;6514;48.606;9.222;2024-01-07T09:20:01;9.47;;;6.07;;
12892;SDS011;6514;48.606;9.222;2024-01-07T09:22:32;9.37;;;5.77;;
12892;SDS011;6514;48.606;9.222;2024-01-07T09:24:59;9.37;;;5.73;;
12892;SDS011;6514;48.606;9.222;2024-01-07T09:27:26;10.70;;;6.20;;
12892;SDS011;6514;48.606;9.222;2024-01-07T09:29:53;8.10;;;5.37;;
12892;SDS011;6514;48.606;9.222;2024-01-07T09:32:20;7.97;;;5.53;;
12892;SDS011;6514;48.606;9.222;2024-01-07T09:34:48;7.13;;;5.00;;
12892;SDS011;6514;48.606;9.222;2024-01-07T09:37:14;7.57;;;5.10;;
12892;SDS011;6514;48.606;9.222;2024-01-07T09:39:42;7.60;;;4.97;;
12892;SDS011;6514;48.606;9.222;2024-01-07T09:42:12;8.13;;;5.60;;
12892;SDS011;6514;48.606;9.222;2024-01-07T09:44:39;7.03;;;5.17;;
12892;SDS011;6514;48.606;9.222;2024-01-07T09:47:07;10.07;;;6.00;;
12892;SDS011;6514;48.606;9.222;2024-01-07T09:49:37;10.17;;;6.17;;
12892;SDS011;6514;48.606;9.222;2024-01-07T09:52:05;8.27;;;5.63;;
12892;SDS011;6514;48.606;9.222;2024-01-07T09:54:33;9.17;;;6.00;;
12892;SDS011;6514;48.606;9.222;2024-01-07T09:57:03;8.43;;;5.77;;
12892;SDS011;6514;48.606;9.222;2024-01-07T09:59:31;10.20;;;5.60;;
12892;SDS011;6514;48.606;9.222;2024-01-07T10:01:59;7.70;;;4.83;;
12892;SDS011;6514;48.606;9.222;2024-01-07T10:04:26;7.87;;;4.77;;
12892;SDS011;6514;48.606;9.222;2024-01-07T10:06:53;5.50;;;3.93;;
12892;SDS011;6514;48.606;9.222;2024-01-07T10:09:23;7.20;;;4.63;;
12892;SDS011;6514;48.606;9.222;2024-01-07T10:11:51;7.07;;;5.13;;
12892;SDS011;6514;48.606;9.222;2024-01-07T10:14:18;6.40;;;4.83;;
12892;SDS011;6514;48.606;9.222;2024-01-07T10:16:47;5.57;;;4.50;;
12892;SDS011;6514;48.606;9.222;2024-01-07T10:19:18;6.33;;;4.70;;
12892;SDS011;6514;48.606;9.222;2024-01-07T10:21:48;7.87;;;5.50;;
12892;SDS011;6514;48.606;9.222;2024-01-07T10:24:28;7.30;;;5.17;;
12892;SDS011;6514;48.606;9.222;2024-01-07T10:27:02;6.97;;;4.33;;
12892;SDS011;6514;48.606;9.222;2024-01-07T10:29:29;18.87;;;8.93;;
12892;SDS011;6514;48.606;9.222;2024-01-07T10:31:57;12.97;;;7.47;;
12892;SDS011;6514;48.606;9.222;2024-01-07T10:34:24;7.60;;;5.00;;
12892;SDS011;6514;48.606;9.222;2024-01-07T10:36:52;6.40;;;4.77;;
12892;SDS011;6514;48.606;9.222;2024-01-07T10:39:23;8.07;;;5.17;;
12892;SDS011;6514;48.606;9.222;2024-01-07T10:41:51;8.73;;;6.13;;
12892;SDS011;6514;48.606;9.222;2024-01-07T10:44:22;7.30;;;5.37;;
12892;SDS011;6514;48.606;9.222;2024-01-07T10:46:49;6.53;;;5.07;;
12892;SDS011;6514;48.606;9.222;2024-01-07T10:49:18;8.13;;;4.93;;
12892;SDS011;6514;48.606;9.222;2024-01-07T10:51:47;10.00;;;5.37;;
12892;SDS011;6514;48.606;9.222;2024-01-07T10:54:21;9.50;;;5.67;;
12892;SDS011;6514;48.606;9.222;2024-01-07T10:56:51;8.27;;;5.20;;
12892;SDS011;6514;48.606;9.222;2024-01-07T10:59:23;7.70;;;5.33;;
12892;SDS011;6514;48.606;9.222;2024-01-07T11:01:53;8.00;;;5.37;;
12892;SDS011;6514;48.606;9.222;2024-01-07T11:04:20;8.73;;;5.63;;
12892;SDS011;6514;48.606;9.222;2024-01-07T11:06:55;7.03;;;5.10;;
12892;SDS011;6514;48.606;9.222;2024-01-07T11:09:28;8.20;;;6.03;;
12892;SDS011;6514;48.606;9.222;2024-01-07T11:12:03;8.70;;;6.03;;
12892;SDS011;6514;48.606;9.222;2024-01-07T11:14:33;8.13;;;5.97;;
12892;SDS011;6514;48.606;9.222;2024-01-07T11:17:01;9.43;;;6.07;;
12892;SDS011;6514;48.606;9.222;2024-01-07T11:19:29;9.47;;;5.93;;
12892;SDS011;6514;48.606;9.222;2024-01-07T11:24:52;11.43;;;6.70;;
12892;SDS011;6514;48.606;9.222;2024-01-07T11:27:22;9.60;;;6.00;;
12892;SDS011;6514;48.606;9.222;2024-01-07T11:29:53;11.47;;;6.63;;
12892;SDS011;6514;48.606;9.222;2024-01-07T11:32:21;9.43;;;6.27;;
12892;SDS011;6514;48.606;9.222;2024-01-07T11:34:51;8.87;;;5.77;;
12892;SDS011;6514;48.606;9.222;2024-01-07T11:37:19;9.83;;;6.10;;
12892;SDS011;6514;48.606;9.222;2024-01-07T11:39:46;9.17;;;6.10;;
12892;SDS011;6514;48.606;9.222;2024-01-07T11:42:14;8.23;;;6.00;;
12892;SDS011;6514;48.606;9.222;2024-01-07T11:44:49;9.20;;;5.93;;
12892;SDS011;6514;48.606;9.222;2024-01-07T11:47:18;8.33;;;5.47;;
12892;SDS011;6514;48.606;9.222;2024-01-07T11:49:46;8.83;;;5.30;;
12892;SDS011;6514;48.606;9.222;2024-01-07T11:52:14;8.57;;;5.83;;
12892;SDS011;6514;48.606;9.222;2024-01-07T11:54:41;9.13;;;6.27;;
12892;SDS011;6514;48.606;9.222;2024-01-07T11:57:09;7.37;;;5.43;;
12892;SDS011;6514;48.606;9.222;2024-01-07T11:59:37;7.93;;;5.50;;
12892;SDS011;6514;48.606;9.222;2024-01-07T12:02:05;7.47;;;5.50;;
12892;SDS011;6514;48.606;9.222;2024-01-07T12:04:33;8.60;;;6.03;;
12892;SDS011;6514;48.606;9.222;2024-01-07T12:07:00;6.53;;;4.97;;
12892;SDS011;6514;48.606;9.222;2024-01-07T12:09:28;7.47;;;5.93;;
12892;SDS011;6514;48.606;9.222;2024-01-07T12:11:55;7.93;;;5.60;;
12892;SDS011;6514;48.606;9.222;2024-01-07T12:14:22;8.77;;;5.53;;
12892;SDS011;6514;48.606;9.222;2024-01-07T12:16:49;8.20;;;6.03;;
12892;SDS011;6514;48.606;9.222;2024-01-07T12:19:17;9.23;;;6.03;;
12892;SDS011;6514;48.606;9.222;2024-01-07T12:21:45;8.50;;;5.80;;
12892;SDS011;6514;48.606;9.222;2024-01-07T12:24:12;7.87;;;5.57;;
12892;SDS011;6514;48.606;9.222;2024-01-07T12:26:39;8.43;;;5.77;;
12892;SDS011;6514;48.606;9.222;2024-01-07T12:29:06;7.60;;;5.37;;
12892;SDS011;6514;48.606;9.222;2024-01-07T12:31:35;7.80;;;5.30;;
12892;SDS011;6514;48.606;9.222;2024-01-07T12:34:03;6.67;;;4.97;;
12892;SDS011;6514;48.606;9.222;2024-01-07T12:36:32;7.43;;;5.70;;
12892;SDS011;6514;48.606;9.222;2024-01-07T12:38:59;6.97;;;5.03;;
12892;SDS011;6514;48.606;9.222;2024-01-07T12:41:26;8.07;;;5.53;;
12892;SDS011;6514;48.606;9.222;2024-01-07T12:43:54;7.60;;;5.50;;
12892;SDS011;6514;48.606;9.222;2024-01-07T12:46:22;6.40;;;5.10;;
12892;SDS011;6514;48.606;9.222;2024-01-07T12:48:49;7.87;;;5.20;;
12892;SDS011;6514;48.606;9.222;2024-01-07T12:51:17;6.87;;;5.40;;
12892;SDS011;6514;48.606;9.222;2024-01-07T12:53:45;6.93;;;5.30;;
12892;SDS011;6514;48.606;9.222;2024-01-07T12:56:12;6.70;;;5.17;;
12892;SDS011;6514;48.606;9.222;2024-01-07T12:58:41;7.60;;;5.27;;
12892;SDS011;6514;48.606;9.222;2024-01-07T13:01:08;7.27;;;5.50;;
12892;SDS011;6514;48.606;9.222;2024-01-07T13:03:36;7.70;;;4.80;;
12892;SDS011;6514;48.606;9.222;2024-01-07T13:06:02;6.53;;;5.03;;
12892;SDS011;6514;48.606;9.222;2024-01-07T13:08:29;7.53;;;5.57;;
12892;SDS011;6514;48.606;9.222;2024-01-07T13:10:59;8.47;;;5.97;;
12892;SDS011;6514;48.606;9.222;2024-01-07T13:13:26;8.33;;;5.43;;
12892;SDS011;6514;48.606;9.222;2024-01-07T13:15:53;7.03;;;4.90;;
12892;SDS011;6514;48.606;9.222;2024-01-07T13:18:22;7.17;;;5.47;;
12892;SDS011;6514;48.606;9.222;2024-01-07T13:20:48;7.10;;;5.60;;
12892;SDS011;6514;48.606;9.222;2024-01-07T13:23:16;7.23;;;5.43;;
12892;SDS011;6514;48.606;9.222;2024-01-07T13:25:43;9.90;;;5.40;;
12892;SDS011;6514;48.606;9.222;2024-01-07T13:28:12;8.90;;;5.87;;
12892;SDS011;6514;48.606;9.222;2024-01-07T13:30:40;8.03;;;5.67;;
12892;SDS011;6514;48.606;9.222;2024-01-07T13:33:07;6.17;;;5.00;;
12892;SDS011;6514;48.606;9.222;2024-01-07T13:35:34;7.30;;;5.80;;
12892;SDS011;6514;48.606;9.222;2024-01-07T13:38:01;7.83;;;5.87;;
12892;SDS011;6514;48.606;9.222;2024-01-07T13:40:28;7.43;;;5.93;;
12892;SDS011;6514;48.606;9.222;2024-01-07T13:42:55;7.90;;;6.07;;
12892;SDS011;6514;48.606;9.222;2024-01-07T13:45:23;7.80;;;5.80;;
12892;SDS011;6514;48.606;9.222;2024-01-07T13:47:50;8.13;;;5.80;;
12892;SDS011;6514;48.606;9.222;2024-01-07T13:50:17;8.43;;;5.57;;
12892;SDS011;6514;48.606;9.222;2024-01-07T13:52:44;8.33;;;5.83;;
12892;SDS011;6514;48.606;9.222;2024-01-07T13:55:11;8.17;;;6.20;;
12892;SDS011;6514;48.606;9.222;2024-01-07T13:57:38;7.90;;;5.90;;
12892;SDS011;6514;48.606;9.222;2024-01-07T14:00:06;9.50;;;6.37;;
12892;SDS011;6514;48.606;9.222;2024-01-07T14:02:36;9.93;;;6.83;;
12892;SDS011;6514;48.606;9.222;2024-01-07T14:05:04;8.50;;;6.13;;
12892;SDS011;6514;48.606;9.222;2024-01-07T14:07:34;8.60;;;6.20;;
12892;SDS011;6514;48.606;9.222;2024-01-07T14:10:01;10.70;;;7.03;;
12892;SDS011;6514;48.606;9.222;2024-01-07T14:12:29;10.10;;;7.37;;
12892;SDS011;6514;48.606;9.222;2024-01-07T14:14:56;12.87;;;8.10;;
12892;SDS011;6514;48.606;9.222;2024-01-07T14:17:24;10.67;;;7.87;;
12892;SDS011;6514;48.606;9.222;2024-01-07T14:19:52;10.50;;;7.23;;
12892;SDS011;6514;48.606;9.222;2024-01-07T14:22:20;12.50;;;8.27;;
12892;SDS011;6514;48.606;9.222;2024-01-07T14:24:48;13.23;;;8.67;;
12892;SDS011;6514;48.606;9.222;2024-01-07T14:27:15;13.40;;;8.63;;
12892;SDS011;6514;48.606;9.222;2024-01-07T14:29:43;11.80;;;7.30;;
12892;SDS011;6514;48.606;9.222;2024-01-07T14:32:10;15.37;;;9.23;;
12892;SDS011;6514;48.606;9.222;2024-01-07T14:34:38;12.90;;;8.67;;
12892;SDS011;6514;48.606;9.222;2024-01-07T14:37:07;13.80;;;8.87;;
12892;SDS011;6514;48.606;9.222;2024-01-07T14:39:35;12.90;;;9.37;;
12892;SDS011;6514;48.606;9.222;2024-01-07T14:42:02;16.70;;;9.57;;
12892;SDS011;6514;48.606;9.222;2024-01-07T14:44:29;12.80;;;8.73;;
12892;SDS011;6514;48.606;9.222;2024-01-07T14:46:57;14.50;;;9.00;;